sensor_id;sensor_type;location;lat;lon;timestamp;temperature;humidity
28010;DHT22;15334;49.494;8.410;2023-07-09T00:01:44;21.60;99.90
28010;DHT22;15334;49.494;8.410;2023-07-09T00:04:13;21.60;99.90
28010;DHT22;15334;49.494;8.410;2023-07-09T00:06:41;21.70;99.90
28010;DHT22;15334;49.494;8.410;2023-07-09T00:09:14;21.70;99.90
28010;DHT22;15334;49.494;8.410;2023-07-09T00:11:43;21.80;99.90
28010;DHT22;15334;49.494;8.410;2023-07-09T00:14:13;21.70;99.90
28010;DHT22;15334;49.494;8.410;2023-07-09T00:16:44;21.70;99.90
28010;DHT22;15334;49.494;8.410;2023-07-09T00:19:16;21.60;99.90
28010;DHT22;15334;49.494;8.410;2023-07-09T00:21:47;21.40;99.90
28010;DHT22;15334;49.494;8.410;2023-07-09T00:24:17;21.30;99.90
28010;DHT22;15334;49.494;8.410;2023-07-09T00:26:45;21.30;99.90
28010;DHT22;15334;49.494;8.410;2023-07-09T00:29:16;21.30;99.90
28010;DHT22;15334;49.494;8.410;2023-07-09T00:31:44;21.20;99.90
28010;DHT22;15334;49.494;8.410;2023-07-09T00:34:15;21.20;99.90
28010;DHT22;15334;49.494;8.410;2023-07-09T00:36:44;21.20;99.90
28010;DHT22;15334;49.494;8.410;2023-07-09T00:39:17;21.20;99.90
28010;DHT22;15334;49.494;8.410;2023-07-09T00:41:46;21.10;99.90
28010;DHT22;15334;49.494;8.410;2023-07-09T00:44:27;21.00;99.90
28010;DHT22;15334;49.494;8.410;2023-07-09T00:47:13;20.90;99.90
28010;DHT22;15334;49.494;8.410;2023-07-09T00:49:44;20.90;99.90
28010;DHT22;15334;49.494;8.410;2023-07-09T00:52:22;21.00;99.90
28010;DHT22;15334;49.494;8.410;2023-07-09T00:54:53;21.00;99.90
28010;DHT22;15334;49.494;8.410;2023-07-09T00:57:23;21.00;99.90
28010;DHT22;15334;49.494;8.410;2023-07-09T00:59:57;21.00;99.90
28010;DHT22;15334;49.494;8.410;2023-07-09T01:02:26;21.00;99.90
28010;DHT22;15334;49.494;8.410;2023-07-09T01:04:58;21.10;99.90
28010;DHT22;15334;49.494;8.410;2023-07-09T01:07:28;21.00;99.90
28010;DHT22;15334;49.494;8.410;2023-07-09T01:09:58;21.10;99.90
28010;DHT22;15334;49.494;8.410;2023-07-09T01:12:26;21.10;99.90
28010;DHT22;15334;49.494;8.410;2023-07-09T01:14:55;21.10;99.90
28010;DHT22;15334;49.494;8.410;2023-07-09T01:17:28;21.00;99.90
28010;DHT22;15334;49.494;8.410;2023-07-09T01:19:56;21.00;99.90
28010;DHT22;15334;49.494;8.410;2023-07-09T01:22:26;21.00;99.90
28010;DHT22;15334;49.494;8.410;2023-07-09T01:24:58;21.00;99.90
28010;DHT22;15334;49.494;8.410;2023-07-09T01:27:31;20.90;99.90
28010;DHT22;15334;49.494;8.410;2023-07-09T01:30:02;20.90;99.90
28010;DHT22;15334;49.494;8.410;2023-07-09T01:32:33;20.80;99.90
28010;DHT22;15334;49.494;8.410;2023-07-09T01:35:03;20.80;99.90
28010;DHT22;15334;49.494;8.410;2023-07-09T01:37:36;20.80;99.90
28010;DHT22;15334;49.494;8.410;2023-07-09T01:40:06;20.80;99.90
28010;DHT22;15334;49.494;8.410;2023-07-09T01:42:55;20.80;99.90
28010;DHT22;15334;49.494;8.410;2023-07-09T01:45:25;20.80;99.90
28010;DHT22;15334;49.494;8.410;2023-07-09T01:47:54;20.70;99.90
28010;DHT22;15334;49.494;8.410;2023-07-09T01:50:23;20.70;99.90
28010;DHT22;15334;49.494;8.410;2023-07-09T01:52:55;20.70;99.90
28010;DHT22;15334;49.494;8.410;2023-07-09T01:55:24;20.70;99.90
28010;DHT22;15334;49.494;8.410;2023-07-09T01:57:52;20.60;99.90
28010;DHT22;15334;49.494;8.410;2023-07-09T02:00:20;20.50;99.90
28010;DHT22;15334;49.494;8.410;2023-07-09T02:02:48;20.50;99.90
28010;DHT22;15334;49.494;8.410;2023-07-09T02:05:18;20.40;99.90
28010;DHT22;15334;49.494;8.410;2023-07-09T02:07:47;20.40;99.90
28010;DHT22;15334;49.494;8.410;2023-07-09T02:10:17;20.30;99.90
28010;DHT22;15334;49.494;8.410;2023-07-09T02:12:46;20.20;99.90
28010;DHT22;15334;49.494;8.410;2023-07-09T02:15:14;20.10;99.90
28010;DHT22;15334;49.494;8.410;2023-07-09T02:17:43;20.10;99.90
28010;DHT22;15334;49.494;8.410;2023-07-09T02:20:11;20.10;99.90
28010;DHT22;15334;49.494;8.410;2023-07-09T02:22:41;20.20;99.90
28010;DHT22;15334;49.494;8.410;2023-07-09T02:25:09;20.20;99.90
28010;DHT22;15334;49.494;8.410;2023-07-09T02:27:38;20.20;99.90
28010;DHT22;15334;49.494;8.410;2023-07-09T02:30:07;20.20;99.90
28010;DHT22;15334;49.494;8.410;2023-07-09T02:32:37;20.20;99.90
28010;DHT22;15334;49.494;8.410;2023-07-09T02:35:07;20.30;99.90
28010;DHT22;15334;49.494;8.410;2023-07-09T02:37:35;20.30;99.90
28010;DHT22;15334;49.494;8.410;2023-07-09T02:40:04;20.30;99.90
28010;DHT22;15334;49.494;8.410;2023-07-09T02:42:33;20.20;99.90
28010;DHT22;15334;49.494;8.410;2023-07-09T02:45:04;20.20;99.90
28010;DHT22;15334;49.494;8.410;2023-07-09T02:47:32;20.20;99.90
28010;DHT22;15334;49.494;8.410;2023-07-09T02:50:01;20.20;99.90
28010;DHT22;15334;49.494;8.410;2023-07-09T02:52:29;20.20;99.90
28010;DHT22;15334;49.494;8.410;2023-07-09T02:54:57;20.20;99.90
28010;DHT22;15334;49.494;8.410;2023-07-09T02:57:26;20.20;99.90
28010;DHT22;15334;49.494;8.410;2023-07-09T02:59:54;20.10;99.90
28010;DHT22;15334;49.494;8.410;2023-07-09T03:02:23;20.10;99.90
28010;DHT22;15334;49.494;8.410;2023-07-09T03:04:51;20.10;99.90
28010;DHT22;15334;49.494;8.410;2023-07-09T03:07:19;20.00;99.90
28010;DHT22;15334;49.494;8.410;2023-07-09T03:09:47;19.90;99.90
28010;DHT22;15334;49.494;8.410;2023-07-09T03:12:15;19.90;99.90
28010;DHT22;15334;49.494;8.410;2023-07-09T03:14:43;20.00;99.90
28010;DHT22;15334;49.494;8.410;2023-07-09T03:17:12;20.00;99.90
28010;DHT22;15334;49.494;8.410;2023-07-09T03:19:42;20.00;99.90
28010;DHT22;15334;49.494;8.410;2023-07-09T03:22:10;20.00;99.90
28010;DHT22;15334;49.494;8.410;2023-07-09T03:24:38;20.00;99.90
28010;DHT22;15334;49.494;8.410;2023-07-09T03:27:06;19.90;99.90
28010;DHT22;15334;49.494;8.410;2023-07-09T03:29:34;19.90;99.90
28010;DHT22;15334;49.494;8.410;2023-07-09T03:32:02;19.80;99.90
28010;DHT22;15334;49.494;8.410;2023-07-09T03:34:30;19.80;99.90
28010;DHT22;15334;49.494;8.410;2023-07-09T03:37:00;19.80;99.90
28010;DHT22;15334;49.494;8.410;2023-07-09T03:39:27;19.80;99.90
28010;DHT22;15334;49.494;8.410;2023-07-09T03:41:55;19.80;99.90
28010;DHT22;15334;49.494;8.410;2023-07-09T03:44:24;19.80;99.90
28010;DHT22;15334;49.494;8.410;2023-07-09T03:46:52;19.80;99.90
28010;DHT22;15334;49.494;8.410;2023-07-09T03:49:20;19.80;99.90
28010;DHT22;15334;49.494;8.410;2023-07-09T03:51:48;19.80;99.90
28010;DHT22;15334;49.494;8.410;2023-07-09T03:54:17;19.90;99.90
28010;DHT22;15334;49.494;8.410;2023-07-09T03:56:45;19.80;99.90
28010;DHT22;15334;49.494;8.410;2023-07-09T03:59:13;19.90;99.90
28010;DHT22;15334;49.494;8.410;2023-07-09T04:01:42;19.90;99.90
28010;DHT22;15334;49.494;8.410;2023-07-09T04:04:13;19.90;99.90
28010;DHT22;15334;49.494;8.410;2023-07-09T04:06:41;20.00;99.90
28010;DHT22;15334;49.494;8.410;2023-07-09T04:09:09;20.10;99.90
28010;DHT22;15334;49.494;8.410;2023-07-09T04:11:38;20.20;99.90
28010;DHT22;15334;49.494;8.410;2023-07-09T04:14:06;20.30;99.90
28010;DHT22;15334;49.494;8.410;2023-07-09T04:16:34;20.30;99.90
28010;DHT22;15334;49.494;8.410;2023-07-09T04:19:02;20.40;99.90
28010;DHT22;15334;49.494;8.410;2023-07-09T04:21:30;20.50;99.90
28010;DHT22;15334;49.494;8.410;2023-07-09T04:23:58;20.50;99.90
28010;DHT22;15334;49.494;8.410;2023-07-09T04:26:26;20.60;99.90
28010;DHT22;15334;49.494;8.410;2023-07-09T04:28:55;20.60;99.90
28010;DHT22;15334;49.494;8.410;2023-07-09T04:31:23;20.70;99.90
28010;DHT22;15334;49.494;8.410;2023-07-09T04:33:51;20.80;99.90
28010;DHT22;15334;49.494;8.410;2023-07-09T04:36:20;20.90;99.90
28010;DHT22;15334;49.494;8.410;2023-07-09T04:38:47;20.90;99.90
28010;DHT22;15334;49.494;8.410;2023-07-09T04:41:15;21.00;99.90
28010;DHT22;15334;49.494;8.410;2023-07-09T04:43:43;21.00;99.90
28010;DHT22;15334;49.494;8.410;2023-07-09T04:46:13;21.10;99.90
28010;DHT22;15334;49.494;8.410;2023-07-09T04:48:41;21.20;99.90
28010;DHT22;15334;49.494;8.410;2023-07-09T04:51:08;21.30;99.90
28010;DHT22;15334;49.494;8.410;2023-07-09T04:53:36;21.30;99.90
28010;DHT22;15334;49.494;8.410;2023-07-09T04:56:04;21.40;99.90
28010;DHT22;15334;49.494;8.410;2023-07-09T04:58:34;21.40;99.90
28010;DHT22;15334;49.494;8.410;2023-07-09T05:01:02;21.50;99.90
28010;DHT22;15334;49.494;8.410;2023-07-09T05:03:32;21.50;99.90
28010;DHT22;15334;49.494;8.410;2023-07-09T05:06:00;21.60;99.90
28010;DHT22;15334;49.494;8.410;2023-07-09T05:08:28;21.60;99.90
28010;DHT22;15334;49.494;8.410;2023-07-09T05:10:57;21.70;99.90
28010;DHT22;15334;49.494;8.410;2023-07-09T05:13:25;21.80;99.90
28010;DHT22;15334;49.494;8.410;2023-07-09T05:15:55;21.90;99.90
28010;DHT22;15334;49.494;8.410;2023-07-09T05:18:23;22.10;99.90
28010;DHT22;15334;49.494;8.410;2023-07-09T05:20:53;22.20;99.90
28010;DHT22;15334;49.494;8.410;2023-07-09T05:23:21;22.30;99.90
28010;DHT22;15334;49.494;8.410;2023-07-09T05:25:49;22.40;99.90
28010;DHT22;15334;49.494;8.410;2023-07-09T05:28:17;22.50;99.90
28010;DHT22;15334;49.494;8.410;2023-07-09T05:30:45;22.60;99.90
28010;DHT22;15334;49.494;8.410;2023-07-09T05:33:13;22.70;99.90
28010;DHT22;15334;49.494;8.410;2023-07-09T05:35:42;22.90;99.90
28010;DHT22;15334;49.494;8.410;2023-07-09T05:38:12;22.90;99.90
28010;DHT22;15334;49.494;8.410;2023-07-09T05:40:41;22.90;99.90
28010;DHT22;15334;49.494;8.410;2023-07-09T05:43:09;23.00;99.90
28010;DHT22;15334;49.494;8.410;2023-07-09T05:45:39;23.00;99.90
28010;DHT22;15334;49.494;8.410;2023-07-09T05:48:07;22.90;99.90
28010;DHT22;15334;49.494;8.410;2023-07-09T05:50:35;22.90;99.90
28010;DHT22;15334;49.494;8.410;2023-07-09T05:53:03;22.90;99.90
28010;DHT22;15334;49.494;8.410;2023-07-09T05:55:32;22.90;99.90
28010;DHT22;15334;49.494;8.410;2023-07-09T05:58:00;23.00;99.90
28010;DHT22;15334;49.494;8.410;2023-07-09T06:00:29;23.10;99.90
28010;DHT22;15334;49.494;8.410;2023-07-09T06:02:57;23.20;99.90
28010;DHT22;15334;49.494;8.410;2023-07-09T06:05:25;23.20;99.90
28010;DHT22;15334;49.494;8.410;2023-07-09T06:07:53;23.30;99.90
28010;DHT22;15334;49.494;8.410;2023-07-09T06:10:21;23.40;99.90
28010;DHT22;15334;49.494;8.410;2023-07-09T06:12:50;23.40;99.90
28010;DHT22;15334;49.494;8.410;2023-07-09T06:15:19;23.50;99.90
28010;DHT22;15334;49.494;8.410;2023-07-09T06:17:47;23.50;99.90
28010;DHT22;15334;49.494;8.410;2023-07-09T06:20:15;23.60;99.90
28010;DHT22;15334;49.494;8.410;2023-07-09T06:22:43;23.70;99.90
28010;DHT22;15334;49.494;8.410;2023-07-09T06:25:12;23.80;99.90
28010;DHT22;15334;49.494;8.410;2023-07-09T06:27:40;23.90;99.90
28010;DHT22;15334;49.494;8.410;2023-07-09T06:30:10;23.90;99.90
28010;DHT22;15334;49.494;8.410;2023-07-09T06:32:38;23.90;99.90
28010;DHT22;15334;49.494;8.410;2023-07-09T06:35:09;24.00;99.90
28010;DHT22;15334;49.494;8.410;2023-07-09T06:37:37;24.00;99.90
28010;DHT22;15334;49.494;8.410;2023-07-09T06:40:06;24.00;99.90
28010;DHT22;15334;49.494;8.410;2023-07-09T06:42:36;24.20;99.90
28010;DHT22;15334;49.494;8.410;2023-07-09T06:45:04;24.30;99.90
28010;DHT22;15334;49.494;8.410;2023-07-09T06:47:34;24.30;99.90
28010;DHT22;15334;49.494;8.410;2023-07-09T06:50:02;24.40;99.90
28010;DHT22;15334;49.494;8.410;2023-07-09T06:52:30;24.40;99.90
28010;DHT22;15334;49.494;8.410;2023-07-09T06:54:58;24.50;99.90
28010;DHT22;15334;49.494;8.410;2023-07-09T06:57:26;24.60;99.90
28010;DHT22;15334;49.494;8.410;2023-07-09T06:59:54;24.70;99.90
28010;DHT22;15334;49.494;8.410;2023-07-09T07:02:22;24.80;99.90
28010;DHT22;15334;49.494;8.410;2023-07-09T07:04:52;24.80;99.90
28010;DHT22;15334;49.494;8.410;2023-07-09T07:07:20;24.90;99.90
28010;DHT22;15334;49.494;8.410;2023-07-09T07:09:48;25.00;99.90
28010;DHT22;15334;49.494;8.410;2023-07-09T07:12:24;25.10;99.90
28010;DHT22;15334;49.494;8.410;2023-07-09T07:14:53;25.20;99.90
28010;DHT22;15334;49.494;8.410;2023-07-09T07:17:21;25.30;99.90
28010;DHT22;15334;49.494;8.410;2023-07-09T07:19:53;25.40;99.90
28010;DHT22;15334;49.494;8.410;2023-07-09T07:22:21;25.60;99.90
28010;DHT22;15334;49.494;8.410;2023-07-09T07:24:49;25.70;99.90
28010;DHT22;15334;49.494;8.410;2023-07-09T07:27:18;25.80;99.90
28010;DHT22;15334;49.494;8.410;2023-07-09T07:29:46;25.90;99.90
28010;DHT22;15334;49.494;8.410;2023-07-09T07:32:14;26.00;99.90
28010;DHT22;15334;49.494;8.410;2023-07-09T07:34:42;26.20;99.90
28010;DHT22;15334;49.494;8.410;2023-07-09T07:37:11;26.30;99.90
28010;DHT22;15334;49.494;8.410;2023-07-09T07:39:39;26.40;99.90
28010;DHT22;15334;49.494;8.410;2023-07-09T07:42:07;26.50;99.90
28010;DHT22;15334;49.494;8.410;2023-07-09T07:44:35;26.70;99.90
28010;DHT22;15334;49.494;8.410;2023-07-09T07:47:04;26.70;99.90
28010;DHT22;15334;49.494;8.410;2023-07-09T07:49:33;26.70;99.90
28010;DHT22;15334;49.494;8.410;2023-07-09T07:52:01;26.80;99.90
28010;DHT22;15334;49.494;8.410;2023-07-09T07:54:32;26.90;99.90
28010;DHT22;15334;49.494;8.410;2023-07-09T07:57:00;26.90;99.90
28010;DHT22;15334;49.494;8.410;2023-07-09T07:59:28;27.00;99.90
28010;DHT22;15334;49.494;8.410;2023-07-09T08:01:56;27.10;99.90
28010;DHT22;15334;49.494;8.410;2023-07-09T08:04:24;27.10;99.90
28010;DHT22;15334;49.494;8.410;2023-07-09T08:06:52;27.20;99.90
28010;DHT22;15334;49.494;8.410;2023-07-09T08:09:20;27.30;99.90
28010;DHT22;15334;49.494;8.410;2023-07-09T08:11:50;27.40;99.90
28010;DHT22;15334;49.494;8.410;2023-07-09T08:14:18;27.50;99.90
28010;DHT22;15334;49.494;8.410;2023-07-09T08:16:46;27.60;99.90
28010;DHT22;15334;49.494;8.410;2023-07-09T08:19:18;27.70;99.90
28010;DHT22;15334;49.494;8.410;2023-07-09T08:21:46;27.80;99.90
28010;DHT22;15334;49.494;8.410;2023-07-09T08:24:14;27.90;99.90
28010;DHT22;15334;49.494;8.410;2023-07-09T08:26:42;28.00;99.90
28010;DHT22;15334;49.494;8.410;2023-07-09T08:29:11;28.10;99.90
28010;DHT22;15334;49.494;8.410;2023-07-09T08:31:39;28.30;99.90
28010;DHT22;15334;49.494;8.410;2023-07-09T08:34:08;28.40;99.90
28010;DHT22;15334;49.494;8.410;2023-07-09T08:36:36;28.50;99.90
28010;DHT22;15334;49.494;8.410;2023-07-09T08:39:04;28.60;99.90
28010;DHT22;15334;49.494;8.410;2023-07-09T08:41:40;28.60;99.90
28010;DHT22;15334;49.494;8.410;2023-07-09T08:44:24;28.70;99.90
28010;DHT22;15334;49.494;8.410;2023-07-09T08:47:00;28.70;99.90
28010;DHT22;15334;49.494;8.410;2023-07-09T08:49:37;28.80;99.90
28010;DHT22;15334;49.494;8.410;2023-07-09T08:52:12;28.90;99.90
28010;DHT22;15334;49.494;8.410;2023-07-09T08:54:44;29.00;99.90
28010;DHT22;15334;49.494;8.410;2023-07-09T08:57:19;29.20;99.90
28010;DHT22;15334;49.494;8.410;2023-07-09T08:59:51;29.30;99.90
28010;DHT22;15334;49.494;8.410;2023-07-09T09:02:30;29.40;99.90
28010;DHT22;15334;49.494;8.410;2023-07-09T09:04:59;29.50;99.90
28010;DHT22;15334;49.494;8.410;2023-07-09T09:07:37;29.60;99.90
28010;DHT22;15334;49.494;8.410;2023-07-09T09:10:11;29.70;99.90
28010;DHT22;15334;49.494;8.410;2023-07-09T09:12:55;29.70;99.90
28010;DHT22;15334;49.494;8.410;2023-07-09T09:15:26;29.80;99.90
28010;DHT22;15334;49.494;8.410;2023-07-09T09:17:58;29.90;99.90
28010;DHT22;15334;49.494;8.410;2023-07-09T09:20:27;30.00;99.90
28010;DHT22;15334;49.494;8.410;2023-07-09T09:23:09;30.20;99.90
28010;DHT22;15334;49.494;8.410;2023-07-09T09:25:41;30.20;99.90
28010;DHT22;15334;49.494;8.410;2023-07-09T09:28:09;30.20;99.90
28010;DHT22;15334;49.494;8.410;2023-07-09T09:30:38;30.30;99.90
28010;DHT22;15334;49.494;8.410;2023-07-09T09:33:09;30.40;99.90
28010;DHT22;15334;49.494;8.410;2023-07-09T09:35:40;30.50;99.90
28010;DHT22;15334;49.494;8.410;2023-07-09T09:38:12;30.60;99.90
28010;DHT22;15334;49.494;8.410;2023-07-09T09:40:40;30.70;99.90
28010;DHT22;15334;49.494;8.410;2023-07-09T09:43:13;30.80;99.80
28010;DHT22;15334;49.494;8.410;2023-07-09T09:45:44;30.80;99.90
28010;DHT22;15334;49.494;8.410;2023-07-09T09:48:15;30.90;99.90
28010;DHT22;15334;49.494;8.410;2023-07-09T09:50:45;31.10;99.90
28010;DHT22;15334;49.494;8.410;2023-07-09T09:53:20;31.30;99.20
28010;DHT22;15334;49.494;8.410;2023-07-09T09:55:51;31.40;98.70
28010;DHT22;15334;49.494;8.410;2023-07-09T09:58:20;31.40;98.90
28010;DHT22;15334;49.494;8.410;2023-07-09T10:00:57;31.50;98.70
28010;DHT22;15334;49.494;8.410;2023-07-09T10:03:35;31.60;99.30
28010;DHT22;15334;49.494;8.410;2023-07-09T10:06:07;31.70;97.20
28010;DHT22;15334;49.494;8.410;2023-07-09T10:08:46;31.70;97.00
28010;DHT22;15334;49.494;8.410;2023-07-09T10:11:21;31.90;96.90
28010;DHT22;15334;49.494;8.410;2023-07-09T10:13:55;32.00;96.50
28010;DHT22;15334;49.494;8.410;2023-07-09T10:16:32;32.10;96.90
28010;DHT22;15334;49.494;8.410;2023-07-09T10:19:12;32.20;97.20
28010;DHT22;15334;49.494;8.410;2023-07-09T10:21:46;32.30;96.00
28010;DHT22;15334;49.494;8.410;2023-07-09T10:24:31;32.30;95.40
28010;DHT22;15334;49.494;8.410;2023-07-09T10:27:09;32.30;95.20
28010;DHT22;15334;49.494;8.410;2023-07-09T10:29:59;32.30;96.40
28010;DHT22;15334;49.494;8.410;2023-07-09T10:32:58;32.40;94.10
28010;DHT22;15334;49.494;8.410;2023-07-09T10:35:35;32.50;92.80
28010;DHT22;15334;49.494;8.410;2023-07-09T10:38:22;32.50;92.90
28010;DHT22;15334;49.494;8.410;2023-07-09T10:40:57;32.50;94.30
28010;DHT22;15334;49.494;8.410;2023-07-09T10:43:48;32.60;94.10
28010;DHT22;15334;49.494;8.410;2023-07-09T10:46:18;32.70;92.50
28010;DHT22;15334;49.494;8.410;2023-07-09T10:48:51;32.80;92.60
28010;DHT22;15334;49.494;8.410;2023-07-09T10:51:23;32.90;90.90
28010;DHT22;15334;49.494;8.410;2023-07-09T10:53:58;33.00;90.30
28010;DHT22;15334;49.494;8.410;2023-07-09T10:56:28;33.00;89.10
28010;DHT22;15334;49.494;8.410;2023-07-09T10:59:03;33.10;91.10
28010;DHT22;15334;49.494;8.410;2023-07-09T11:01:47;33.20;90.50
28010;DHT22;15334;49.494;8.410;2023-07-09T11:04:27;33.30;88.50
28010;DHT22;15334;49.494;8.410;2023-07-09T11:07:00;33.40;89.30
28010;DHT22;15334;49.494;8.410;2023-07-09T11:09:32;33.50;89.40
28010;DHT22;15334;49.494;8.410;2023-07-09T11:12:04;33.60;90.30
28010;DHT22;15334;49.494;8.410;2023-07-09T11:14:36;33.60;87.50
28010;DHT22;15334;49.494;8.410;2023-07-09T11:17:07;33.70;88.20
28010;DHT22;15334;49.494;8.410;2023-07-09T11:19:43;33.80;90.40
28010;DHT22;15334;49.494;8.410;2023-07-09T11:22:22;33.80;86.90
28010;DHT22;15334;49.494;8.410;2023-07-09T11:25:06;33.90;90.00
28010;DHT22;15334;49.494;8.410;2023-07-09T11:27:45;34.00;86.60
28010;DHT22;15334;49.494;8.410;2023-07-09T11:30:20;34.20;85.20
28010;DHT22;15334;49.494;8.410;2023-07-09T11:32:53;34.30;84.70
28010;DHT22;15334;49.494;8.410;2023-07-09T11:35:28;34.30;87.10
28010;DHT22;15334;49.494;8.410;2023-07-09T11:37:56;34.30;83.60
28010;DHT22;15334;49.494;8.410;2023-07-09T11:40:45;34.30;85.60
28010;DHT22;15334;49.494;8.410;2023-07-09T11:43:27;34.40;84.40
28010;DHT22;15334;49.494;8.410;2023-07-09T11:45:57;34.50;83.00
28010;DHT22;15334;49.494;8.410;2023-07-09T11:48:29;34.60;83.60
28010;DHT22;15334;49.494;8.410;2023-07-09T11:51:08;34.70;82.70
28010;DHT22;15334;49.494;8.410;2023-07-09T11:53:41;34.80;80.10
28010;DHT22;15334;49.494;8.410;2023-07-09T11:56:10;34.90;79.70
28010;DHT22;15334;49.494;8.410;2023-07-09T11:58:48;34.90;80.70
28010;DHT22;15334;49.494;8.410;2023-07-09T12:01:18;35.00;81.40
28010;DHT22;15334;49.494;8.410;2023-07-09T12:03:47;35.10;81.10
28010;DHT22;15334;49.494;8.410;2023-07-09T12:06:21;35.20;80.50
28010;DHT22;15334;49.494;8.410;2023-07-09T12:08:51;35.30;77.10
28010;DHT22;15334;49.494;8.410;2023-07-09T12:11:21;35.40;78.30
28010;DHT22;15334;49.494;8.410;2023-07-09T12:13:49;35.50;77.40
28010;DHT22;15334;49.494;8.410;2023-07-09T12:16:20;35.60;79.30
28010;DHT22;15334;49.494;8.410;2023-07-09T12:18:49;35.70;80.30
28010;DHT22;15334;49.494;8.410;2023-07-09T12:21:19;35.90;78.20
28010;DHT22;15334;49.494;8.410;2023-07-09T12:23:47;36.00;75.70
28010;DHT22;15334;49.494;8.410;2023-07-09T12:26:16;36.20;75.20
28010;DHT22;15334;49.494;8.410;2023-07-09T12:28:50;36.30;75.00
28010;DHT22;15334;49.494;8.410;2023-07-09T12:31:20;36.60;76.10
28010;DHT22;15334;49.494;8.410;2023-07-09T12:33:52;37.10;70.30
28010;DHT22;15334;49.494;8.410;2023-07-09T12:36:23;37.30;71.80
28010;DHT22;15334;49.494;8.410;2023-07-09T12:38:55;37.40;70.00
28010;DHT22;15334;49.494;8.410;2023-07-09T12:41:27;37.70;73.60
28010;DHT22;15334;49.494;8.410;2023-07-09T12:43:58;37.90;70.00
28010;DHT22;15334;49.494;8.410;2023-07-09T12:46:27;38.00;68.30
28010;DHT22;15334;49.494;8.410;2023-07-09T12:48:56;38.10;67.40
28010;DHT22;15334;49.494;8.410;2023-07-09T12:51:28;38.20;68.20
28010;DHT22;15334;49.494;8.410;2023-07-09T12:54:02;38.20;67.50
28010;DHT22;15334;49.494;8.410;2023-07-09T12:56:34;38.30;70.10
28010;DHT22;15334;49.494;8.410;2023-07-09T12:59:03;38.30;69.80
28010;DHT22;15334;49.494;8.410;2023-07-09T13:01:35;38.30;66.90
28010;DHT22;15334;49.494;8.410;2023-07-09T13:04:03;38.20;65.90
28010;DHT22;15334;49.494;8.410;2023-07-09T13:06:36;38.20;65.80
28010;DHT22;15334;49.494;8.410;2023-07-09T13:09:13;38.10;64.90
28010;DHT22;15334;49.494;8.410;2023-07-09T13:11:44;38.10;65.60
28010;DHT22;15334;49.494;8.410;2023-07-09T13:14:19;38.00;65.40
28010;DHT22;15334;49.494;8.410;2023-07-09T13:16:47;38.10;62.80
28010;DHT22;15334;49.494;8.410;2023-07-09T13:19:17;38.20;62.90
28010;DHT22;15334;49.494;8.410;2023-07-09T13:21:46;38.30;64.80
28010;DHT22;15334;49.494;8.410;2023-07-09T13:24:19;38.40;64.50
28010;DHT22;15334;49.494;8.410;2023-07-09T13:26:48;38.40;62.50
28010;DHT22;15334;49.494;8.410;2023-07-09T13:29:17;38.40;60.60
28010;DHT22;15334;49.494;8.410;2023-07-09T13:31:46;38.50;61.50
28010;DHT22;15334;49.494;8.410;2023-07-09T13:34:19;38.70;62.40
28010;DHT22;15334;49.494;8.410;2023-07-09T13:36:50;38.80;59.70
28010;DHT22;15334;49.494;8.410;2023-07-09T13:39:20;39.00;61.10
28010;DHT22;15334;49.494;8.410;2023-07-09T13:41:50;39.20;60.70
28010;DHT22;15334;49.494;8.410;2023-07-09T13:44:23;39.30;58.90
28010;DHT22;15334;49.494;8.410;2023-07-09T13:46:51;39.30;58.60
28010;DHT22;15334;49.494;8.410;2023-07-09T13:49:22;39.30;61.00
28010;DHT22;15334;49.494;8.410;2023-07-09T13:51:54;39.30;58.90
28010;DHT22;15334;49.494;8.410;2023-07-09T13:54:26;39.20;56.80
28010;DHT22;15334;49.494;8.410;2023-07-09T13:56:58;39.00;57.20
28010;DHT22;15334;49.494;8.410;2023-07-09T13:59:28;39.20;57.30
28010;DHT22;15334;49.494;8.410;2023-07-09T14:01:57;39.40;55.40
28010;DHT22;15334;49.494;8.410;2023-07-09T14:04:27;39.30;56.50
28010;DHT22;15334;49.494;8.410;2023-07-09T14:06:56;39.40;55.80
28010;DHT22;15334;49.494;8.410;2023-07-09T14:09:24;39.50;54.90
28010;DHT22;15334;49.494;8.410;2023-07-09T14:11:53;39.60;55.30
28010;DHT22;15334;49.494;8.410;2023-07-09T14:14:23;39.80;56.30
28010;DHT22;15334;49.494;8.410;2023-07-09T14:16:51;39.80;58.10
28010;DHT22;15334;49.494;8.410;2023-07-09T14:19:21;39.70;56.80
28010;DHT22;15334;49.494;8.410;2023-07-09T14:21:50;39.50;57.00
28010;DHT22;15334;49.494;8.410;2023-07-09T14:24:23;39.20;55.70
28010;DHT22;15334;49.494;8.410;2023-07-09T14:26:52;38.70;55.50
28010;DHT22;15334;49.494;8.410;2023-07-09T14:29:21;38.40;56.30
28010;DHT22;15334;49.494;8.410;2023-07-09T14:31:49;38.20;54.30
28010;DHT22;15334;49.494;8.410;2023-07-09T14:34:20;38.00;57.40
28010;DHT22;15334;49.494;8.410;2023-07-09T14:36:50;37.90;54.70
28010;DHT22;15334;49.494;8.410;2023-07-09T14:39:20;37.90;58.70
28010;DHT22;15334;49.494;8.410;2023-07-09T14:41:48;37.90;58.80
28010;DHT22;15334;49.494;8.410;2023-07-09T14:44:22;37.80;57.60
28010;DHT22;15334;49.494;8.410;2023-07-09T14:46:52;37.90;58.20
28010;DHT22;15334;49.494;8.410;2023-07-09T14:49:20;37.90;55.40
28010;DHT22;15334;49.494;8.410;2023-07-09T14:51:50;37.80;56.10
28010;DHT22;15334;49.494;8.410;2023-07-09T14:54:22;37.70;56.60
28010;DHT22;15334;49.494;8.410;2023-07-09T14:56:52;37.60;59.70
28010;DHT22;15334;49.494;8.410;2023-07-09T14:59:20;37.50;54.90
28010;DHT22;15334;49.494;8.410;2023-07-09T15:01:48;37.40;55.30
28010;DHT22;15334;49.494;8.410;2023-07-09T15:04:28;37.30;55.60
28010;DHT22;15334;49.494;8.410;2023-07-09T15:06:57;37.00;56.70
28010;DHT22;15334;49.494;8.410;2023-07-09T15:09:28;36.90;60.40
28010;DHT22;15334;49.494;8.410;2023-07-09T15:11:57;36.80;60.10
28010;DHT22;15334;49.494;8.410;2023-07-09T15:14:28;36.80;59.00
28010;DHT22;15334;49.494;8.410;2023-07-09T15:16:56;36.80;58.20
28010;DHT22;15334;49.494;8.410;2023-07-09T15:19:27;36.60;64.00
28010;DHT22;15334;49.494;8.410;2023-07-09T15:21:55;36.60;57.50
28010;DHT22;15334;49.494;8.410;2023-07-09T15:24:28;36.50;57.20
28010;DHT22;15334;49.494;8.410;2023-07-09T15:26:57;36.50;60.20
28010;DHT22;15334;49.494;8.410;2023-07-09T15:29:27;36.50;58.60
28010;DHT22;15334;49.494;8.410;2023-07-09T15:31:55;36.50;63.00
28010;DHT22;15334;49.494;8.410;2023-07-09T15:34:23;36.50;59.20
28010;DHT22;15334;49.494;8.410;2023-07-09T15:36:52;36.60;55.60
28010;DHT22;15334;49.494;8.410;2023-07-09T15:39:20;36.60;59.00
28010;DHT22;15334;49.494;8.410;2023-07-09T15:41:50;36.60;55.30
28010;DHT22;15334;49.494;8.410;2023-07-09T15:44:18;36.50;58.40
28010;DHT22;15334;49.494;8.410;2023-07-09T15:46:52;36.40;57.70
28010;DHT22;15334;49.494;8.410;2023-07-09T15:49:21;36.40;60.30
28010;DHT22;15334;49.494;8.410;2023-07-09T15:51:49;36.20;60.30